Date,TemperatureHighF,TemperatureAvgF,TemperatureLowF,DewpointHighF,DewpointAvgF,DewpointLowF,HumidityHigh,HumidityAvg,HumidityLow,PressureMaxIn,PressureMinIn,WindSpeedMaxMPH,WindSpeedAvgMPH,GustSpeedMaxMPH,PrecipitationSumIn
2013-1-1,32,26,13,32,21,8,99,83,61,30.16,30.03,11,1,11,0.00
2013-1-2,25,14,6,16,8,2,91,78,53,30.29,30.14,6,0,6,0.05
2013-1-3,31,19,4,22,12,1,88,74,48,30.31,30.22,13,2,13,0.00
2013-1-4,31,27,23,22,17,14,77,68,57,30.32,30.25,16,4,16,0.00
2013-1-5,37,28,12,28,21,10,92,74,54,30.39,30.16,14,3,14,0.06
2013-1-6,37,33,27,33,27,22,94,80,69,30.31,30.00,16,4,16,0.15
2013-1-7,35,28,21,25,23,19,94,81,62,30.49,30.27,12,2,12,0.05
2013-1-8,43,30,17,31,25,15,95,82,59,30.37,30.25,11,1,11,0.07
2013-1-9,45,39,29,38,32,26,91,78,65,30.52,30.21,12,2,12,0.02
2013-1-10,41,32,24,31,27,23,98,84,60,30.58,30.19,14,2,14,0.01
2013-1-11,60,50,41,54,46,30,99,86,64,30.18,29.89,17,3,17,0.44
2013-1-12,63,56,47,62,54,45,100,94,78,30.03,29.81,13,2,13,0.01
2013-1-13,65,56,38,61,54,36,99,92,76,30.04,29.73,24,5,24,0.41
2013-1-14,38,27,24,36,22,20,93,80,75,30.45,30.04,12,3,12,0.00
2013-1-15,32,28,23,24,21,19,88,75,64,30.42,30.11,11,2,11,0.00
2013-1-16,35,32,29,28,26,23,89,78,66,30.11,29.96,13,2,13,0.00
2013-1-17,38,33,23,29,25,11,82,72,57,30.36,30.06,19,3,19,0.00
2013-1-18,35,27,17,23,16,9,84,65,49,30.53,30.21,22,4,22,0.00
2013-1-19,52,43,34,28,25,21,64,50,33,30.21,29.83,25,9,25,0.00
2013-1-20,45,30,23,34,17,11,70,58,45,30.20,29.82,23,4,23,0.00
2013-1-21,24,18,9,16,8,-4,80,66,44,30.21,30.05,22,4,22,0.00
2013-1-22,14,10,6,2,-2,-5,67,59,49,30.38,30.21,23,5,23,0.00
2013-1-23,21,15,9,14,3,-3,85,59,36,30.36,30.11,14,3,14,0.00
2013-1-24,21,16,10,14,8,4,86,71,55,30.60,30.11,18,3,18,0.00
2013-1-25,22,19,16,20,12,4,89,76,55,30.52,30.06,13,3,13,0.00
2013-1-26,28,23,8,21,17,3,89,78,65,30.47,30.13,11,2,11,0.01
2013-1-27,34,23,6,30,15,3,92,73,55,30.53,30.25,14,2,14,0.08
2013-1-28,50,43,32,49,42,30,100,97,91,30.25,30.00,17,5,17,0.24
2013-1-29,63,55,48,56,52,48,100,90,75,30.05,29.61,23,5,23,0.01
2013-1-30,62,55,34,57,50,28,99,86,75,29.61,29.21,26,6,26,0.59
2013-1-31,34,25,16,28,18,10,90,74,56,29.95,29.41,24,7,24,0.00
2013-2-1,16,12,8,12,3,-1,81,66,59,30.40,29.96,21,5,21,0.00
2013-2-2,26,20,10,23,15,3,90,81,68,30.37,30.01,14,4,14,0.00
2013-2-3,24,20,14,21,14,9,88,80,64,30.12,29.93,12,2,12,0.00
2013-2-4,28,22,13,27,18,9,95,85,58,30.12,29.87,12,1,12,0.00
2013-2-5,32,28,24,29,23,19,95,84,69,30.00,29.88,10,2,10,0.08
2013-2-6,33,29,20,29,20,14,88,70,49,30.32,30.00,13,2,13,0.01
2013-2-7,48,35,19,32,26,14,86,69,49,30.27,29.82,12,2,12,0.00
2013-2-8,44,33,24,39,28,18,98,80,68,30.32,29.77,23,6,23,0.16
2013-2-9,36,26,18,20,18,15,92,71,46,30.46,30.31,7,1,7,0.00
2013-2-10,50,38,24,41,24,16,84,58,35,30.31,29.81,20,3,20,0.00
2013-2-11,50,43,36,48,35,24,95,72,53,29.98,29.73,24,7,24,0.00
2013-2-12,45,35,28,28,24,21,86,66,43,30.12,29.93,18,3,18,0.00
2013-2-13,32,29,24,28,25,22,94,86,76,29.93,29.77,9,1,9,0.00
2013-2-14,45,34,25,37,30,23,98,87,71,29.97,29.82,20,4,20,0.00
2013-2-15,35,30,25,30,26,18,93,85,69,30.14,29.96,15,2,15,0.00
2013-2-16,28,22,14,23,15,2,93,76,53,30.14,30.00,16,3,16,0.01
2013-2-17,24,18,13,12,8,2,79,67,47,30.28,30.09,15,3,15,0.00
2013-2-18,50,34,15,34,19,8,77,56,42,30.28,29.76,33,4,33,0.00
2013-2-19,48,31,20,39,25,13,97,80,61,30.06,29.63,28,6,28,0.17
2013-2-20,22,19,16,16,12,8,84,72,60,30.31,30.06,15,4,15,0.00
2013-2-21,27,23,20,18,16,11,85,72,66,30.39,30.22,15,4,15,0.00
2013-2-22,40,32,25,38,29,17,99,88,70,30.22,29.94,22,4,22,0.06
2013-2-23,39,34,28,32,27,23,96,77,57,29.99,29.91,11,2,11,0.00
2013-2-24,34,30,26,25,22,18,87,72,55,30.18,29.93,12,2,12,0.00
2013-2-25,44,33,20,28,23,18,96,70,46,30.23,30.01,11,1,11,0.00
2013-2-26,43,37,33,42,33,23,99,84,61,30.01,29.46,21,8,21,0.80
2013-2-27,43,38,33,42,35,30,97,91,80,29.68,29.48,20,7,20,0.16
2013-2-28,36,34,31,34,31,28,97,91,82,29.92,29.64,16,4,16,0.03
2013-3-1,33,30,27,29,24,18,86,79,70,30.06,29.92,11,2,11,0.00
2013-3-2,28,26,25,22,21,18,86,80,72,30.07,30.02,15,4,15,0.00
2013-3-3,29,25,23,20,17,13,84,71,56,30.09,30.03,13,3,13,0.00
2013-3-4,39,28,16,22,17,14,92,66,38,30.20,30.07,9,1,9,0.00
2013-3-5,38,34,29,32,26,20,97,75,55,30.11,29.59,17,3,17,0.05
2013-3-6,36,33,30,32,30,27,99,88,77,30.23,29.58,13,3,13,0.33
2013-3-7,39,34,31,30,28,26,84,77,63,30.37,30.21,13,2,13,0.05
2013-3-8,44,35,25,30,26,22,89,71,53,30.48,30.37,12,1,12,0.00
2013-3-9,55,41,25,33,28,22,93,63,37,30.41,30.07,14,2,14,0.00
2013-3-10,69,57,47,39,33,28,59,42,27,30.07,29.83,22,2,22,0.00
2013-3-11,60,50,40,51,43,33,98,79,38,29.84,29.55,19,3,19,0.70
2013-3-12,40,36,30,34,30,27,95,80,68,30.01,29.79,15,4,15,0.00
2013-3-13,33,29,26,32,23,16,96,78,63,30.27,29.97,21,5,21,0.01
2013-3-14,41,31,23,23,19,16,76,62,41,30.34,30.16,11,2,11,0.00
2013-3-15,48,38,26,41,31,21,96,76,60,30.17,29.85,11,2,11,0.15
2013-3-16,47,40,31,46,38,28,100,96,86,30.04,29.62,17,3,17,0.10
2013-3-17,36,33,31,29,26,24,89,76,62,30.19,30.03,16,2,16,0.00
2013-3-18,49,40,32,49,38,24,100,93,73,30.10,29.60,26,6,26,0.97
2013-3-19,38,34,28,35,22,16,88,64,46,30.04,29.77,21,6,25,0.00
2013-3-20,33,29,22,19,15,11,73,55,46,30.03,29.93,18,4,18,0.00
2013-3-21,29,24,18,20,14,9,81,66,57,30.01,29.94,17,3,17,0.00
2013-3-22,41,30,20,22,18,15,82,63,36,30.06,30.00,14,2,14,0.00
2013-3-23,45,33,22,26,22,18,90,66,38,30.09,29.98,12,2,12,0.00
2013-3-24,37,34,30,29,23,20,91,66,52,29.99,29.45,18,3,18,0.00
2013-3-25,35,32,30,32,30,29,97,94,86,29.89,29.40,16,4,16,0.22
2013-3-26,41,35,31,32,29,23,97,81,51,30.18,29.89,18,4,18,0.08
2013-3-27,43,37,33,30,27,20,86,69,43,30.26,30.16,18,4,18,0.00
2013-3-28,47,38,28,28,25,21,78,62,45,30.32,30.25,16,3,16,0.00
2013-3-29,51,38,25,31,26,22,93,65,38,30.32,30.22,13,1,13,0.00
2013-3-30,56,41,25,36,27,22,98,64,28,30.25,29.97,11,1,11,0.00
2013-3-31,56,47,40,46,38,26,96,72,50,29.97,29.72,14,2,14,0.04
2013-4-1,47,38,30,41,22,14,84,54,34,30.11,29.74,22,5,22,0.00
2013-4-2,41,32,21,19,16,12,79,53,32,30.27,30.11,16,2,16,0.00
2013-4-3,44,33,21,19,14,10,80,49,26,30.44,30.27,17,2,17,0.00
2013-4-4,53,38,26,26,15,5,72,43,15,30.39,29.98,10,2,10,0.00
2013-4-5,54,41,27,34,24,21,85,55,30,30.18,29.96,19,2,19,0.00
2013-4-6,59,45,30,24,17,7,63,34,19,30.26,29.91,14,3,14,0.00
2013-4-7,72,60,51,43,36,20,70,41,27,29.96,29.82,24,5,24,0.00
2013-4-8,71,61,47,53,47,39,85,63,47,29.97,29.84,25,5,25,0.00
2013-4-9,81,67,50,57,52,48,93,63,37,30.05,29.87,28,4,28,0.00
2013-4-10,80,68,56,63,58,53,99,73,50,29.92,29.75,30,6,30,0.14
2013-4-11,64,57,48,62,56,47,100,97,88,29.85,29.52,24,2,24,0.80
2013-4-12,58,47,41,58,42,32,100,84,63,29.89,29.46,18,4,18,0.18
2013-4-13,50,43,33,37,34,30,89,72,57,30.05,29.89,16,4,16,0.00
2013-4-14,64,49,33,42,36,30,93,65,37,30.13,29.93,14,2,14,0.00
2013-4-15,68,60,46,53,46,37,79,62,49,30.00,29.91,17,3,17,0.00
2013-4-16,76,62,54,62,56,50,99,81,56,30.16,29.94,19,4,19,0.24
2013-4-17,65,58,52,59,55,51,100,90,80,30.21,29.99,16,3,16,0.21
2013-4-18,82,71,60,64,57,51,93,66,36,30.00,29.61,32,8,32,0.00
2013-4-19,74,54,40,60,43,30,96,69,46,29.90,29.39,21,7,21,0.54
2013-4-20,45,40,32,30,26,23,80,60,46,30.43,30.01,17,4,17,0.00
2013-4-21,52,41,26,28,25,20,87,55,33,30.59,30.43,13,2,13,0.00
2013-4-22,67,52,33,44,33,26,79,51,27,30.43,30.16,13,2,13,0.00
2013-4-23,70,58,42,49,40,30,80,53,32,30.16,29.86,20,4,20,0.00
2013-4-24,63,49,35,57,45,33,98,85,57,30.19,29.72,19,3,19,0.63
2013-4-25,55,43,33,38,33,24,97,70,42,30.38,30.19,20,4,20,0.01
2013-4-26,60,46,29,41,32,25,96,63,28,30.48,30.37,10,1,10,0.00
2013-4-27,70,55,36,47,36,29,97,57,24,30.38,30.08,15,2,15,0.00
2013-4-28,64,57,52,61,54,45,100,90,65,30.09,29.81,13,2,13,0.58
2013-4-29,65,59,53,58,56,51,100,88,65,29.97,29.86,10,1,10,0.24
2013-4-30,75,61,46,58,52,46,100,77,47,30.07,29.96,13,1,13,0.00
2013-5-1,80,66,52,59,55,51,98,69,40,30.20,30.06,14,2,14,0.00
2013-5-2,75,66,54,57,52,48,88,63,47,30.24,30.10,16,2,16,0.00
2013-5-3,76,67,58,57,46,30,93,52,22,30.11,30.00,20,3,20,0.00
2013-5-4,70,63,55,48,43,36,63,49,38,30.05,29.97,22,5,22,0.00
2013-5-5,72,63,52,45,40,34,75,46,27,30.01,29.91,17,3,17,0.00
2013-5-6,68,61,55,58,48,33,93,65,34,29.98,29.92,11,2,11,0.03
2013-5-7,70,62,54,60,56,52,97,81,59,29.97,29.91,20,1,20,0.01
2013-5-8,72,62,54,56,53,49,90,73,47,29.98,29.90,10,0,10,0.00
2013-5-9,80,66,50,58,52,42,100,67,27,29.99,29.92,14,1,14,0.00
2013-5-10,72,63,58,63,60,56,99,91,69,29.94,29.76,24,3,24,0.56
2013-5-11,62,56,50,61,54,50,98,95,91,29.83,29.79,10,3,10,0.01
2013-5-12,52,45,38,38,33,27,93,66,40,30.13,29.96,18,2,18,0.01
2013-5-13,56,45,34,35,31,25,95,63,32,30.19,30.10,15,1,15,0.00
2013-5-14,75,57,37,55,43,34,92,62,39,30.16,29.80,18,3,20,0.00
2013-5-15,86,76,64,61,57,52,80,54,32,29.81,29.73,21,3,21,0.00
2013-5-16,78,70,59,63,56,40,96,63,27,29.95,29.76,9,1,11,0.01
2013-5-17,80,66,55,65,59,52,100,81,39,30.07,29.95,13,1,16,0.00
2013-5-18,79,67,60,64,59,52,96,77,54,30.08,29.97,9,1,9,0.10
2013-5-19,80,70,59,67,63,58,100,80,55,30.00,29.89,10,1,10,0.00
2013-5-20,86,74,64,72,66,62,100,79,49,29.98,29.85,18,2,18,0.00
2013-5-21,85,77,69,68,63,57,94,66,40,29.88,29.76,23,4,23,0.00
2013-5-22,81,72,64,68,62,58,93,73,49,29.81,29.68,23,5,23,0.09
2013-5-23,72,62,47,64,57,45,97,85,55,30.04,29.74,20,3,20,0.20
2013-5-24,58,49,42,45,39,34,92,68,42,30.32,30.04,22,4,22,0.00
2013-5-25,64,51,37,46,40,36,100,68,38,30.39,30.24,13,1,13,0.00
2013-5-26,69,55,39,48,37,28,97,57,22,30.33,30.21,9,1,9,0.00
2013-5-27,68,58,50,52,46,35,89,64,47,30.25,29.99,19,2,19,0.06
2013-5-28,83,72,62,68,60,52,97,67,42,30.01,29.91,25,4,25,0.16
2013-5-29,87,77,68,62,58,50,69,54,30,30.03,29.94,21,5,21,0.00
2013-5-30,88,77,64,67,63,57,95,64,40,30.12,29.98,17,2,17,0.00
2013-5-31,86,73,66,69,64,59,99,75,45,30.03,29.90,31,4,31,0.49
2013-6-1,81,74,66,69,66,63,99,79,57,29.95,29.71,25,6,25,0.22
2013-6-2,76,70,64,68,61,56,97,75,51,29.89,29.74,15,3,15,0.00
2013-6-3,65,60,53,58,52,46,89,77,51,30.07,29.89,12,2,12,0.00
2013-6-4,74,60,43,48,45,41,98,62,33,30.17,30.07,10,1,10,0.00
2013-6-5,81,68,54,58,50,44,76,55,34,30.12,29.87,9,1,9,0.00
2013-6-6,67,62,57,65,60,52,100,94,60,29.88,29.76,10,1,10,0.23
2013-6-7,63,59,56,56,55,53,98,88,74,29.89,29.81,12,1,12,0.00
2013-6-8,75,63,51,59,54,49,100,76,42,30.05,29.89,6,0,6,0.00
2013-6-9,81,72,60,66,60,52,93,69,40,30.07,29.90,12,1,12,0.01
2013-6-10,79,69,65,68,65,59,99,86,53,29.90,29.73,14,2,14,0.85
2013-6-11,83,72,64,66,63,59,97,75,46,29.92,29.79,13,2,13,0.00
2013-6-12,87,77,64,72,69,63,98,76,57,29.89,29.65,14,2,14,0.00
2013-6-13,81,70,63,72,61,50,99,76,43,29.86,29.50,23,3,23,0.52
2013-6-14,75,67,58,59,57,54,97,72,49,30.04,29.86,13,2,13,0.00
2013-6-15,78,67,51,65,58,51,100,75,46,30.11,29.94,13,1,13,0.00
2013-6-16,78,72,68,67,65,61,95,79,63,29.95,29.89,18,3,18,0.05
2013-6-17,85,74,66,70,66,57,98,77,40,29.94,29.86,10,1,10,0.00
2013-6-18,79,71,62,68,64,56,96,78,55,29.98,29.82,15,2,15,0.00
2013-6-19,78,66,54,56,50,40,96,62,27,30.13,29.98,9,1,9,0.00
2013-6-20,83,69,52,61,53,46,97,63,31,30.20,30.12,7,0,7,0.00
2013-6-21,86,73,57,63,58,50,98,64,30,30.21,30.09,11,1,11,0.00
2013-6-22,89,76,63,70,66,60,97,74,47,30.13,30.01,21,2,21,0.00
2013-6-23,89,77,64,71,65,59,100,72,41,30.11,29.99,16,2,16,0.00
2013-6-24,86,76,63,69,65,61,99,72,51,30.10,29.97,15,2,15,0.00
2013-6-25,90,79,70,74,69,65,95,73,51,30.03,29.83,17,2,17,0.19
2013-6-26,85,74,66,73,68,61,100,84,59,29.90,29.75,17,2,17,0.34
2013-6-27,85,74,68,72,69,65,100,84,55,29.77,29.62,15,2,15,0.04
2013-6-28,81,73,64,70,64,52,97,77,49,29.64,29.51,28,2,28,0.13
2013-6-29,80,67,59,66,62,59,100,87,53,29.66,29.53,12,1,12,0.24
2013-6-30,78,68,61,68,64,60,100,87,60,29.84,29.66,13,1,13,0.00
2013-7-1,77,70,65,69,65,61,98,87,71,29.91,29.81,8,1,14,0.03
2013-7-2,82,74,67,68,66,63,98,79,56,30.00,29.90,12,1,12,0.00
2013-7-3,84,74,66,70,67,63,100,79,52,30.10,29.99,15,2,15,0.00
2013-7-4,75,72,70,71,69,68,98,91,80,30.13,30.07,11,1,11,0.05
2013-7-5,78,71,67,70,68,66,100,90,68,30.13,30.06,13,1,13,0.39
2013-7-6,83,74,70,75,70,66,100,90,65,30.12,29.98,14,2,14,0.45
2013-7-7,80,71,65,68,66,60,98,84,54,30.08,29.99,13,2,13,0.25
2013-7-8,81,73,64,76,70,64,100,92,77,30.10,30.00,11,1,11,0.47
2013-7-9,88,76,71,78,73,70,100,91,67,30.03,29.93,18,2,18,0.54
2013-7-10,88,75,67,78,72,64,100,89,64,29.96,29.77,25,3,25,0.03
2013-7-11,78,71,62,68,62,54,100,77,49,30.00,29.90,13,1,13,0.00
2013-7-12,80,69,58,64,60,57,98,74,48,30.08,30.00,14,1,14,0.00
2013-7-13,84,74,63,68,65,62,99,77,55,30.15,30.06,14,2,14,0.00
2013-7-14,89,79,68,73,70,66,97,76,55,30.21,30.13,10,1,10,0.00
2013-7-15,90,81,72,78,71,67,93,73,48,30.28,30.20,10,0,10,0.00
2013-7-16,93,82,70,76,72,68,100,76,46,30.30,30.21,9,1,9,0.00
2013-7-17,91,82,72,76,73,69,100,76,50,30.28,30.13,10,1,10,0.00
2013-7-18,92,82,73,76,72,67,96,74,45,30.15,29.98,11,0,11,0.00
2013-7-19,90,81,74,75,72,67,91,74,55,29.99,29.83,16,3,16,0.00
2013-7-20,80,75,69,73,71,67,96,88,74,29.90,29.79,16,2,16,0.04
2013-7-21,85,76,69,73,70,64,100,82,52,29.95,29.86,6,0,6,0.00
2013-7-22,75,72,68,71,69,68,99,91,82,29.90,29.73,8,1,8,0.00
2013-7-23,87,75,67,74,69,64,100,83,57,29.77,29.65,17,2,17,0.00
2013-7-24,72,67,59,67,58,52,94,73,52,29.99,29.76,12,2,12,0.00
2013-7-25,77,65,51,57,53,50,100,70,40,30.07,29.99,13,1,13,0.00
2013-7-26,80,68,53,62,57,51,100,72,39,30.08,29.94,12,1,12,0.00
2013-7-27,75,67,61,68,62,56,99,86,57,29.94,29.79,18,3,18,0.00
2013-7-28,70,62,54,60,53,46,100,74,49,30.02,29.86,16,2,16,0.00
2013-7-29,74,66,59,58,54,49,92,67,47,30.17,30.02,14,2,14,0.00
2013-7-30,79,67,54,64,58,54,100,76,46,30.22,30.11,7,0,7,0.00
2013-7-31,74,68,65,68,65,63,98,89,75,30.11,29.91,13,1,13,0.00
2013-8-1,80,71,65,68,65,59,100,83,50,29.93,29.87,12,2,12,0.00
2013-8-2,78,68,56,65,60,53,100,77,47,30.01,29.89,16,1,16,0.11
2013-8-3,80,71,62,69,64,58,100,81,51,29.98,29.93,12,1,12,0.16
2013-8-4,75,66,58,62,57,52,97,74,47,30.11,29.98,13,2,13,0.00
2013-8-5,75,65,52,62,56,51,100,76,47,30.12,29.97,7,0,7,0.00
2013-8-6,81,72,62,64,59,56,87,67,45,29.99,29.90,12,1,12,0.00
2013-8-7,84,75,65,74,69,63,94,81,61,29.91,29.84,12,2,12,0.00
2013-8-8,83,73,69,75,72,69,100,95,72,29.92,29.87,19,1,19,1.79
2013-8-9,79,70,63,71,66,58,100,88,55,30.01,29.87,10,1,10,0.40
2013-8-10,83,73,64,68,65,60,100,79,51,30.09,30.00,9,1,9,0.00
2013-8-11,82,72,63,70,66,62,100,82,57,30.08,30.00,11,1,11,0.00
2013-8-12,83,73,62,70,65,62,100,78,53,30.04,29.84,17,2,17,0.00
2013-8-13,73,67,54,67,60,49,99,79,51,30.01,29.79,16,3,16,0.00
2013-8-14,68,58,49,52,50,46,96,77,53,30.16,30.01,10,1,10,0.00
2013-8-15,74,60,47,58,51,47,100,76,44,30.18,30.09,6,0,10,0.00
2013-8-16,76,64,51,57,54,50,100,73,42,30.15,30.11,10,0,10,0.00
2013-8-17,80,68,56,62,57,54,96,73,44,30.19,30.13,12,1,12,0.00
2013-8-18,78,67,57,65,61,56,99,83,57,30.17,30.09,11,1,11,0.00
2013-8-19,82,70,60,68,62,54,100,79,40,30.13,30.05,7,1,7,0.00
2013-8-20,84,71,58,69,62,57,100,77,46,30.17,30.09,7,0,7,0.00
2013-8-21,85,70,60,75,64,57,100,85,53,30.15,30.03,13,0,13,0.21
2013-8-22,82,72,63,70,67,62,100,86,63,30.09,29.98,5,1,16,0.06
2013-8-23,83,73,62,68,64,56,99,76,47,30.13,30.00,10,1,10,0.00
2013-8-24,83,68,54,61,58,53,99,72,40,30.27,30.13,10,1,10,0.00
2013-8-25,84,70,56,64,58,51,100,71,35,30.32,30.19,10,1,10,0.00
2013-8-26,86,74,60,70,64,59,99,75,48,30.23,30.01,15,1,15,0.00
2013-8-27,84,76,67,75,71,66,99,85,67,30.02,29.89,11,2,11,0.00
2013-8-28,84,78,71,75,72,70,96,82,69,29.94,29.79,13,2,13,0.04
2013-8-29,84,75,68,72,69,66,100,86,55,30.02,29.93,7,0,7,0.00
2013-8-30,87,75,63,74,67,63,100,78,48,29.98,29.79,13,2,13,0.00
2013-8-31,86,75,68,76,71,67,98,87,63,29.82,29.74,11,2,17,0.71
2013-9-1,84,75,67,72,69,66,100,83,60,29.79,29.72,12,1,12,0.00
2013-9-2,80,73,64,72,68,58,100,85,64,29.86,29.73,14,2,14,0.00
2013-9-3,67,60,54,59,54,50,98,83,64,30.05,29.86,15,2,15,0.00
2013-9-4,81,64,50,60,56,50,100,77,41,30.13,30.05,12,1,12,0.00
2013-9-5,78,65,55,65,55,42,100,75,37,30.20,30.08,12,1,12,0.00
2013-9-6,76,61,46,56,48,40,100,70,28,30.25,30.10,7,1,7,0.00
2013-9-7,84,67,50,66,57,49,100,74,46,30.10,29.92,11,1,11,0.00
2013-9-8,79,72,65,70,66,63,96,80,64,30.01,29.91,10,1,10,0.00
2013-9-9,88,74,61,71,65,60,98,75,49,30.02,29.94,14,3,14,0.00
2013-9-10,93,82,72,75,71,68,91,70,45,30.08,29.98,15,4,15,0.00
2013-9-11,88,78,72,73,71,68,93,80,58,30.10,29.95,14,2,14,0.08
2013-9-12,77,70,60,71,67,58,99,88,55,29.95,29.81,15,2,15,0.83
2013-9-13,62,56,50,58,50,45,97,79,58,30.08,29.87,17,3,17,0.00
2013-9-14,68,54,41,49,45,41,100,76,41,30.19,30.08,11,1,11,0.00
2013-9-15,74,58,44,57,49,43,100,75,39,30.15,30.02,12,1,12,0.08
2013-9-16,70,61,52,58,54,49,100,81,49,30.30,30.09,12,1,12,0.07
2013-9-17,72,58,45,54,50,45,100,77,43,30.35,30.19,9,1,9,0.00
2013-9-18,77,64,53,64,57,51,97,81,54,30.19,30.04,8,1,8,0.00
2013-9-19,74,68,66,68,66,64,99,93,80,30.08,29.96,11,1,11,0.00
2013-9-20,85,73,66,71,67,64,100,84,51,29.98,29.75,21,3,21,0.30
2013-9-21,71,64,55,68,59,47,100,84,49,29.84,29.64,15,2,15,1.33
2013-9-22,64,55,48,49,46,41,96,73,45,30.03,29.84,13,2,13,0.00
2013-9-23,64,53,42,51,45,42,100,78,48,30.15,30.03,12,1,12,0.00
2013-9-24,69,54,41,50,46,41,100,80,47,30.12,29.95,10,1,10,0.00
2013-9-25,72,58,46,56,50,46,100,80,46,29.96,29.88,11,1,11,0.00
2013-9-26,78,62,47,57,50,41,100,71,28,30.08,29.93,9,1,9,0.00
2013-9-27,76,60,43,57,50,42,100,73,39,30.18,30.08,10,1,10,0.00
2013-9-28,78,63,47,57,52,46,100,71,38,30.18,30.06,9,1,9,0.00
2013-9-29,73,62,54,61,58,53,98,85,56,30.06,29.97,12,2,12,0.00
2013-9-30,72,65,61,63,60,58,97,85,65,30.00,29.94,12,3,12,0.00
2013-10-1,78,65,53,65,58,53,100,81,52,30.07,29.98,13,2,13,0.00
2013-10-2,81,68,59,68,63,58,100,86,56,30.09,30.00,6,1,6,0.00
2013-10-3,78,70,64,70,67,64,100,91,68,30.05,29.98,16,1,16,0.41
2013-10-4,79,69,62,70,67,61,100,94,65,30.06,30.00,12,1,12,0.26
2013-10-5,79,70,65,74,68,64,100,95,72,30.04,29.90,11,1,11,0.16
2013-10-6,76,67,52,68,64,51,100,93,69,29.91,29.65,20,3,20,1.15
2013-10-7,60,52,46,54,46,42,100,81,52,30.16,29.75,16,2,16,0.19
2013-10-8,67,52,39,53,45,39,100,80,44,30.30,30.16,10,1,10,0.00
2013-10-9,70,54,42,51,46,42,100,78,38,30.28,30.18,9,1,9,0.00
2013-10-10,74,56,40,54,46,40,100,76,33,30.20,30.07,7,0,7,0.00
2013-10-11,78,59,44,54,48,41,100,71,30,30.11,30.02,7,0,7,0.00
2013-10-12,73,61,50,60,55,49,99,84,61,30.11,30.04,7,0,7,0.00
2013-10-13,66,60,50,60,57,49,100,90,72,30.28,30.11,11,1,11,0.00
2013-10-14,70,56,45,53,48,44,100,76,42,30.34,30.20,10,1,10,0.00
2013-10-15,67,58,48,63,56,46,100,92,84,30.22,29.93,9,1,9,0.00
2013-10-16,66,62,50,64,58,44,100,88,63,29.93,29.84,12,2,12,0.22
2013-10-17,54,48,40,50,45,40,100,90,80,29.95,29.81,11,1,11,0.07
2013-10-18,63,52,42,48,43,40,97,75,44,30.02,29.93,17,3,17,0.00
2013-10-19,49,45,41,44,42,38,97,89,81,29.97,29.80,13,2,13,0.17
2013-10-20,58,43,38,42,38,36,92,83,51,30.01,29.96,16,4,16,0.00
2013-10-21,65,54,43,50,41,36,94,65,36,29.99,29.86,22,5,22,0.06
2013-10-22,51,43,34,42,31,23,91,64,34,30.02,29.89,16,2,16,0.05
2013-10-23,45,39,33,38,35,32,99,87,63,30.01,29.79,17,2,17,0.28
2013-10-24,45,38,32,35,30,23,93,75,47,30.23,30.00,13,2,13,0.00
2013-10-25,49,37,28,34,28,25,94,72,43,30.41,30.23,12,2,12,0.00
2013-10-26,46,40,33,36,29,25,82,64,47,30.27,29.92,26,6,26,0.00
2013-10-27,55,41,29,40,32,28,100,75,38,30.12,30.04,11,1,11,0.00
2013-10-28,60,43,29,43,33,28,100,73,32,30.32,30.10,5,0,5,0.00
2013-10-29,58,44,31,44,38,30,100,80,47,30.39,30.23,3,0,4,0.00
2013-10-30,64,55,44,59,50,40,99,83,72,30.23,30.00,10,0,10,0.00
2013-10-31,65,61,59,63,59,56,100,92,72,30.00,29.29,27,4,27,0.85
2013-11-1,63,54,49,63,47,43,99,78,57,29.71,29.28,21,4,21,0.16
2013-11-2,52,48,41,44,41,35,97,79,56,30.05,29.70,10,2,13,0.02
2013-11-3,52,44,38,41,37,32,99,79,53,30.41,30.05,8,1,8,0.00
2013-11-4,54,45,36,38,32,25,81,64,41,30.46,30.34,13,3,13,0.00
2013-11-5,59,51,44,43,40,37,83,66,52,30.42,30.23,10,1,10,0.00
2013-11-6,64,55,46,59,46,36,98,74,51,30.23,29.93,28,4,28,0.25
2013-11-7,46,42,38,45,33,26,96,73,49,30.19,29.98,20,4,20,0.08
2013-11-8,45,37,31,34,31,27,95,79,50,30.36,30.16,12,1,12,0.00
2013-11-9,59,47,33,37,32,26,89,60,40,30.26,29.97,20,5,23,0.00
2013-11-10,49,36,31,39,13,-100,88,59,57,30.33,30.02,24,-145,24,0.00
2013-11-11,50,25,33,39,-27,-100,96,35,40,30.29,30.05,19,-445,19,0.04
2013-11-12,32,15,24,24,-36,-100,82,39,68,30.59,30.23,18,-469,18,0.01
2013-11-13,36,19,24,22,-27,-100,74,36,51,30.62,30.38,25,-184,25,0.01
2013-11-14,50,28,29,28,-20,-100,73,31,32,30.37,30.15,38,-346,38,0.00
2013-11-15,50,26,38,33,-29,-100,63,27,39,30.16,30.09,37,-446,37,0.00
2013-11-16,56,15,50,44,-62,-100,62,15,44,30.15,29.90,33,-720,33,0.00
2013-11-17,-200,0,200,-100,-100,-100,0,0,100,29.90,29.46,0,-999,0,0.00
2013-11-18,49,23,37,38,-30,-100,76,34,58,30.14,29.68,33,-472,33,0.00
2013-11-19,40,12,32,28,-58,-100,75,21,59,30.38,30.14,13,-670,13,0.00
2013-11-20,47,22,30,33,-32,-100,72,33,51,30.39,30.26,18,-468,18,0.00
2013-11-21,54,28,42,44,-21,-100,86,39,59,30.35,30.19,10,-436,10,0.00
2013-11-22,52,46,34,52,44,26,100,92,73,30.34,30.15,19,4,19,0.26
2013-11-23,35,28,19,28,21,8,95,76,53,30.53,30.30,27,5,27,0.00
2013-11-24,25,19,15,13,9,4,82,64,46,30.66,30.53,14,4,15,0.00
2013-11-25,35,26,17,29,15,10,95,63,41,30.55,30.21,19,4,19,0.00
2013-11-26,33,31,29,32,30,27,99,95,91,30.22,29.90,10,2,10,0.02
2013-11-27,31,26,20,28,18,10,92,71,47,30.25,29.87,21,6,21,0.00
2013-11-28,30,26,18,20,18,14,91,73,57,30.45,30.25,16,3,16,0.00
2013-11-29,36,28,17,20,18,14,92,68,47,30.66,30.45,6,2,9,0.00
2013-11-30,43,32,25,29,24,18,88,74,53,30.58,30.19,11,2,11,0.00
2013-12-1,46,37,27,34,30,24,92,79,59,30.19,29.97,12,1,12,0.00
2013-12-2,41,36,31,36,32,-100,96,87,63,29.97,29.84,6,1,6,0.03
2013-12-3,51,43,34,45,40,33,100,90,74,29.90,29.82,9,1,9,0.02
2013-12-4,60,53,43,54,48,41,95,84,74,29.90,29.74,14,1,14,0.00
2013-12-5,62,49,32,58,44,30,95,84,67,30.11,29.74,16,4,16,0.07
2013-12-6,32,28,25,30,27,24,99,94,88,30.39,30.09,13,3,13,0.00
2013-12-7,25,22,13,24,15,10,96,77,61,30.63,30.38,19,2,19,0.06
2013-12-8,31,24,15,30,20,12,98,85,74,30.59,30.03,15,4,15,0.00
2013-12-9,33,30,24,33,26,16,100,86,73,30.22,29.99,13,4,13,0.01
2013-12-10,25,21,18,19,13,9,91,72,52,30.34,30.12,23,4,23,0.00
2013-12-11,30,20,12,20,13,6,82,74,62,30.51,30.29,16,4,16,0.00
2013-12-12,18,13,8,6,3,0,81,64,45,30.55,30.34,24,5,24,0.00
2013-12-13,32,24,13,25,13,3,78,64,54,30.34,30.22,10,2,10,0.00
2013-12-14,36,33,29,36,32,25,100,99,81,30.24,29.71,16,4,16,0.04
2013-12-15,29,23,20,29,18,12,100,82,66,30.12,29.78,17,5,17,0.00
2013-12-16,28,22,16,27,17,13,96,81,70,30.19,30.02,14,2,14,0.00
2013-12-17,32,27,24,30,23,20,97,87,78,30.13,29.98,15,3,15,0.01
2013-12-18,30,26,21,23,18,14,90,73,59,30.25,30.06,20,4,20,0.00
2013-12-19,47,39,30,35,27,17,77,61,57,30.09,29.96,16,5,16,0.09
2013-12-20,57,51,46,56,43,31,100,76,52,29.96,29.81,24,8,24,0.02
2013-12-21,65,56,48,63,56,48,100,98,90,29.81,29.43,23,5,23,1.36
2013-12-22,62,53,40,60,49,39,100,87,67,29.99,29.50,28,6,28,0.81
2013-12-23,40,32,26,39,26,17,97,76,64,30.36,29.99,15,3,15,0.01
2013-12-24,26,16,10,21,10,4,89,76,66,30.60,30.33,19,3,19,0.00
2013-12-25,31,23,12,25,14,8,87,71,51,30.55,30.20,17,3,17,0.00
2013-12-26,36,31,27,26,21,11,82,67,41,30.36,30.16,21,4,21,0.00
2013-12-27,44,37,32,30,26,21,72,65,55,30.39,30.25,15,4,15,0.00
2013-12-28,51,41,33,34,30,26,79,66,50,30.25,30.02,19,5,19,0.00
2013-12-29,41,39,31,40,34,26,98,84,56,30.02,29.75,20,3,20,0.25
2013-12-30,31,26,23,27,19,16,85,76,69,30.24,29.98,14,3,22,0.00
2013-12-31,26,23,20,19,16,13,87,75,67,30.36,30.14,29,5,29,0.00
2014-1-1,37,29,20,28,23,16,91,81,65,30.33,30.08,14,2,14,0.00
2014-1-2,28,20,8,25,17,3,94,86,67,30.21,29.83,22,5,22,0.00